createdAt,value
2022-08-23T00:01:36.928Z,4.10
2022-08-23T00:06:36.843Z,4.80
2022-08-23T00:11:36.766Z,4.70
2022-08-23T00:16:36.769Z,4.40
2022-08-23T00:21:36.633Z,4.20
2022-08-23T00:26:36.555Z,3.40
2022-08-23T00:31:36.509Z,4.60
2022-08-23T00:36:36.426Z,4.20
2022-08-23T00:41:36.383Z,3.80
2022-08-23T00:46:36.307Z,4.20
2022-08-23T00:51:37.013Z,3.70
2022-08-23T00:56:37.176Z,3.80
2022-08-23T01:01:36.182Z,3.90
2022-08-23T01:06:36.032Z,3.60
2022-08-23T01:11:36.018Z,4.20
2022-08-23T01:16:35.899Z,4.10
2022-08-23T01:21:36.449Z,4.00
2022-08-23T01:26:35.760Z,3.80
2022-08-23T01:31:35.714Z,3.90
2022-08-23T01:36:35.641Z,4.10
2022-08-23T01:41:35.565Z,3.70
2022-08-23T01:46:35.673Z,4.00
2022-08-23T01:51:35.474Z,3.50
2022-08-23T01:56:38.816Z,3.00
2022-08-23T02:01:35.331Z,3.40
2022-08-23T02:06:35.225Z,3.50
2022-08-23T02:11:35.165Z,3.20
2022-08-23T02:16:35.099Z,3.60
2022-08-23T02:21:35.026Z,3.20
2022-08-23T02:26:34.956Z,3.90
2022-08-23T02:31:34.901Z,3.50
2022-08-23T02:36:34.882Z,3.60
2022-08-23T02:41:34.833Z,3.60
2022-08-23T02:46:34.742Z,2.80
2022-08-23T02:51:34.945Z,3.80
2022-08-23T02:56:34.616Z,3.70
2022-08-23T03:01:34.554Z,3.50
2022-08-23T03:06:34.475Z,3.50
2022-08-23T03:11:34.423Z,4.10
2022-08-23T03:16:34.354Z,4.40
2022-08-23T03:21:34.289Z,4.10
2022-08-23T03:26:34.226Z,3.50
2022-08-23T03:31:34.102Z,3.60
2022-08-23T03:36:34.022Z,3.10
2022-08-23T03:41:33.976Z,4.20
2022-08-23T03:46:34.333Z,4.30
2022-08-23T03:51:33.854Z,3.70
2022-08-23T03:56:34.014Z,3.30
2022-08-23T04:01:33.747Z,3.70
2022-08-23T04:06:33.635Z,3.50
2022-08-23T04:11:33.589Z,3.70
2022-08-23T04:16:33.505Z,3.60
2022-08-23T04:21:33.438Z,3.00
2022-08-23T04:26:33.388Z,3.80
2022-08-23T04:31:34.741Z,4.70
2022-08-23T04:36:34.638Z,4.80
2022-08-23T04:41:33.178Z,5.30
2022-08-23T04:46:33.119Z,5.10
2022-08-23T04:51:33.049Z,5.20
2022-08-23T04:56:32.979Z,5.60
2022-08-23T05:01:33.258Z,5.30
2022-08-23T05:06:32.850Z,6.00
2022-08-23T05:11:32.804Z,6.20
2022-08-23T05:16:32.732Z,6.30
2022-08-23T05:21:32.658Z,5.90
2022-08-23T05:26:32.623Z,6.00
2022-08-23T05:31:32.522Z,6.00
2022-08-23T05:36:32.451Z,6.30
2022-08-23T05:41:35.167Z,6.60
2022-08-23T05:46:33.338Z,6.50
2022-08-23T05:51:32.301Z,6.70
2022-08-23T05:56:32.193Z,6.60
2022-08-23T06:01:32.190Z,6.80
2022-08-23T06:06:36.780Z,7.10
2022-08-23T06:11:33.008Z,7.30
2022-08-23T06:16:31.935Z,7.20
2022-08-23T06:21:31.880Z,7.20
2022-08-23T06:26:31.846Z,7.30
2022-08-23T06:31:31.766Z,7.90
2022-08-23T06:36:31.696Z,7.40
2022-08-23T06:41:31.636Z,7.50
2022-08-23T06:46:31.606Z,7.70
2022-08-23T06:51:31.480Z,7.00
2022-08-23T06:56:31.419Z,6.60
2022-08-23T07:01:47.218Z,6.60
2022-08-23T07:06:32.290Z,6.30
2022-08-23T07:11:31.399Z,6.70
2022-08-23T07:16:31.241Z,7.20
2022-08-23T07:21:31.140Z,6.90
2022-08-23T07:26:31.053Z,7.10
2022-08-23T07:31:31.049Z,7.40
2022-08-23T07:36:30.905Z,7.40
2022-08-23T07:41:32.451Z,7.60
2022-08-23T07:46:30.841Z,8.00
2022-08-23T07:51:30.714Z,7.30
2022-08-23T07:56:30.625Z,7.40
2022-08-23T08:01:30.610Z,7.70
2022-08-23T08:06:30.549Z,7.70
2022-08-23T08:11:34.585Z,8.30
2022-08-23T08:16:30.605Z,8.30
2022-08-23T08:21:30.316Z,8.60
2022-08-23T08:26:30.270Z,8.70
2022-08-23T08:31:30.245Z,3.50
2022-08-23T08:36:30.148Z,8.00
2022-08-23T08:41:30.076Z,8.30
2022-08-23T08:46:30.029Z,6.70
2022-08-23T08:51:30.177Z,7.30
2022-08-23T08:56:32.764Z,8.50
2022-08-23T09:01:29.833Z,7.80
2022-08-23T09:06:29.711Z,9.00
2022-08-23T09:11:29.693Z,10.70
2022-08-23T09:16:29.632Z,10.60
2022-08-23T09:21:29.722Z,10.30
2022-08-23T09:26:29.454Z,9.90
2022-08-23T09:31:32.098Z,9.40
2022-08-23T09:36:30.347Z,9.00
2022-08-23T09:41:29.255Z,8.70
2022-08-23T09:46:29.227Z,8.90
2022-08-23T09:51:29.126Z,8.30
2022-08-23T09:56:29.059Z,7.90
2022-08-23T10:01:29.066Z,7.80
2022-08-23T10:06:30.988Z,7.30
2022-08-23T10:11:28.891Z,7.00
2022-08-23T10:16:28.822Z,6.20
2022-08-23T10:21:28.730Z,6.40
2022-08-23T10:26:28.923Z,6.20
2022-08-23T10:31:28.690Z,6.10
2022-08-23T10:36:28.557Z,6.20
2022-08-23T10:41:28.478Z,6.00
2022-08-23T10:46:28.477Z,6.30
2022-08-23T10:51:31.760Z,5.10
2022-08-23T10:56:28.265Z,5.10
2022-08-23T11:01:28.229Z,4.70
2022-08-23T11:06:28.163Z,4.80
2022-08-23T11:11:28.093Z,5.00
2022-08-23T11:16:28.026Z,4.60
2022-08-23T11:21:27.962Z,5.00
2022-08-23T11:26:27.879Z,4.50
2022-08-23T11:31:28.147Z,4.90
2022-08-23T11:36:27.750Z,5.10
2022-08-23T11:41:27.680Z,4.70
2022-08-23T11:46:27.700Z,5.10
2022-08-23T11:51:27.542Z,5.50
2022-08-23T11:56:27.500Z,5.00
2022-08-23T12:01:27.416Z,4.90
2022-08-23T12:06:27.371Z,4.90
2022-08-23T12:11:27.284Z,4.80
2022-08-23T12:16:28.886Z,4.80
2022-08-23T12:21:27.166Z,5.20
2022-08-23T12:26:27.106Z,5.60
2022-08-23T12:31:27.234Z,5.50
2022-08-23T12:36:27.219Z,5.90
2022-08-23T12:41:26.920Z,4.90
2022-08-23T12:46:26.854Z,5.10
2022-08-23T12:51:26.781Z,6.30
2022-08-23T12:56:31.384Z,4.80
2022-08-23T13:01:30.078Z,4.50
2022-08-23T13:06:26.713Z,4.90
2022-08-23T13:11:26.508Z,5.00
2022-08-23T13:16:27.526Z,5.10
2022-08-23T13:21:26.385Z,6.60
2022-08-23T13:26:26.852Z,6.50
2022-08-23T13:31:26.282Z,5.10
2022-08-23T13:36:26.204Z,5.20
2022-08-23T13:41:26.336Z,5.30
2022-08-23T13:46:26.611Z,5.20
2022-08-23T13:51:26.019Z,5.00
2022-08-23T13:56:26.301Z,5.10
2022-08-23T14:01:25.950Z,4.70
2022-08-23T14:06:25.822Z,4.40
2022-08-23T14:11:25.760Z,4.50
2022-08-23T14:16:33.747Z,4.70
2022-08-23T14:21:26.747Z,4.70
2022-08-23T14:26:25.560Z,4.30
2022-08-23T14:31:25.481Z,4.40
2022-08-23T14:36:25.411Z,4.50
2022-08-23T14:41:25.351Z,4.40
2022-08-23T14:46:25.361Z,4.50
2022-08-23T14:51:25.223Z,4.70
2022-08-23T14:56:25.175Z,4.40
2022-08-23T15:01:25.244Z,4.50
2022-08-23T15:06:25.087Z,4.60
2022-08-23T15:16:26.102Z,3.80
2022-08-23T15:21:24.829Z,3.60
2022-08-23T15:26:24.763Z,3.50
2022-08-23T15:31:24.721Z,4.00
2022-08-23T15:36:24.794Z,3.80
2022-08-23T15:41:24.692Z,3.80
2022-08-23T15:46:24.591Z,3.70
2022-08-23T15:51:25.250Z,3.90
2022-08-23T15:56:24.524Z,3.90
2022-08-23T16:01:24.788Z,4.00
2022-08-23T16:06:24.253Z,4.20
2022-08-23T16:11:24.155Z,3.90
2022-08-23T16:16:24.156Z,4.10
2022-08-23T16:21:24.027Z,4.10
2022-08-23T16:26:35.046Z,4.10
2022-08-23T16:31:37.399Z,4.40
2022-08-23T16:36:29.741Z,4.40
2022-08-23T16:41:24.762Z,4.20
2022-08-23T16:46:23.791Z,4.30
2022-08-23T16:51:23.625Z,3.90
2022-08-23T16:56:23.754Z,4.70
2022-08-23T17:01:23.616Z,4.00
2022-08-23T17:06:23.446Z,3.90
2022-08-23T17:11:23.356Z,4.00
2022-08-23T17:16:24.350Z,4.10
2022-08-23T17:21:23.218Z,4.80
2022-08-23T17:26:23.188Z,4.60
2022-08-23T17:31:23.151Z,4.60
2022-08-23T17:36:23.065Z,4.80
2022-08-23T17:41:22.963Z,4.80
2022-08-23T17:46:22.901Z,9.00
2022-08-23T17:51:22.831Z,5.10
2022-08-23T17:56:22.990Z,5.20
2022-08-23T18:01:22.788Z,5.10
2022-08-23T18:06:22.675Z,5.20
2022-08-23T18:11:22.590Z,5.40
2022-08-23T18:16:22.544Z,4.70
2022-08-23T18:21:22.455Z,5.30
2022-08-23T18:26:22.385Z,5.40
2022-08-23T18:31:22.365Z,5.50
2022-08-23T18:36:22.285Z,6.80
2022-08-23T18:41:22.177Z,6.40
2022-08-23T18:46:22.119Z,6.20
2022-08-23T18:51:22.061Z,6.20
2022-08-23T18:56:22.031Z,6.80
2022-08-23T19:01:22.117Z,6.60
2022-08-23T19:06:21.904Z,6.90
2022-08-23T19:11:21.771Z,6.00
2022-08-23T19:16:21.843Z,6.50
2022-08-23T19:21:21.755Z,6.00
2022-08-23T19:26:21.665Z,6.60
2022-08-23T19:31:21.542Z,7.10
2022-08-23T19:36:44.707Z,7.90
2022-08-23T19:41:22.393Z,7.90
2022-08-23T19:46:21.376Z,8.40
2022-08-23T19:51:21.253Z,8.00
2022-08-23T19:56:21.237Z,7.50
2022-08-23T20:01:21.188Z,8.20
2022-08-23T20:06:21.087Z,10.00
2022-08-23T20:11:21.038Z,6.80
2022-08-23T20:16:21.128Z,7.30
2022-08-23T20:21:23.722Z,7.50
2022-08-23T20:26:20.800Z,7.20
2022-08-23T20:31:20.779Z,8.30
2022-08-23T20:36:20.701Z,7.70
2022-08-23T20:41:20.626Z,7.60
2022-08-23T20:46:20.687Z,8.00
2022-08-23T20:51:20.457Z,7.40
2022-08-23T20:56:20.444Z,7.80
2022-08-23T21:01:20.425Z,8.00
2022-08-23T21:06:20.989Z,8.50
2022-08-23T21:11:20.196Z,8.00
2022-08-23T21:16:20.434Z,7.20
2022-08-23T21:21:21.762Z,7.10
2022-08-23T21:26:20.019Z,7.10
2022-08-23T21:31:19.982Z,7.90
2022-08-23T21:36:19.875Z,8.50
2022-08-23T21:41:19.820Z,8.90
2022-08-23T21:46:19.792Z,8.40
2022-08-23T21:51:19.721Z,6.90
2022-08-23T21:56:19.617Z,7.60
2022-08-23T22:01:19.600Z,8.40
2022-08-23T22:06:19.533Z,7.10
2022-08-23T22:11:19.426Z,8.10
2022-08-23T22:16:19.453Z,8.90
2022-08-23T22:21:19.463Z,9.10
2022-08-23T22:26:19.223Z,6.90
2022-08-23T22:31:19.188Z,9.00
2022-08-23T22:36:19.076Z,9.10
2022-08-23T22:41:19.008Z,8.40
2022-08-23T22:46:18.978Z,8.00
2022-08-23T22:51:18.878Z,8.50
2022-08-23T22:56:18.817Z,8.60
2022-08-23T23:01:18.955Z,8.90
2022-08-23T23:06:18.772Z,9.40
2022-08-23T23:11:18.619Z,8.90
2022-08-23T23:16:18.622Z,8.80
2022-08-23T23:21:18.506Z,9.00
2022-08-23T23:26:18.694Z,9.70
2022-08-23T23:31:18.411Z,9.50
2022-08-23T23:36:18.323Z,9.00
2022-08-23T23:41:18.233Z,8.00
2022-08-23T23:46:18.241Z,8.00
2022-08-23T23:51:18.094Z,9.50
2022-08-23T23:56:18.034Z,8.40
